createdAt,value
2022-12-04T00:01:36.634Z,82.87
2022-12-04T00:06:40.358Z,82.83
2022-12-04T00:11:43.665Z,83.06
2022-12-04T00:16:47.109Z,83.10
2022-12-04T00:21:51.620Z,82.97
2022-12-04T00:26:55.340Z,83.08
2022-12-04T00:31:58.745Z,83.09
2022-12-04T00:37:02.271Z,83.21
2022-12-04T00:42:05.785Z,83.25
2022-12-04T00:47:09.095Z,83.30
2022-12-04T00:52:12.507Z,83.34
2022-12-04T00:57:15.921Z,83.40
2022-12-04T01:02:19.435Z,83.54
2022-12-04T01:07:22.755Z,83.65
2022-12-04T01:12:26.262Z,83.63
2022-12-04T01:17:29.880Z,83.59
2022-12-04T01:22:33.397Z,83.70
2022-12-04T01:27:36.707Z,83.61
2022-12-04T01:32:40.228Z,83.82
2022-12-04T01:37:43.737Z,83.83
2022-12-04T01:42:52.681Z,83.92
2022-12-04T01:48:19.747Z,83.91
2022-12-04T01:53:23.288Z,83.86
2022-12-04T01:58:32.515Z,83.87
2022-12-04T02:03:36.343Z,83.85
2022-12-04T02:08:39.956Z,83.95
2022-12-04T02:14:04.769Z,84.19
2022-12-04T02:19:10.742Z,84.12
2022-12-04T02:24:50.134Z,84.25
2022-12-04T02:30:04.468Z,84.38
2022-12-04T02:35:10.956Z,84.48
2022-12-04T02:40:21.841Z,84.43
2022-12-04T02:45:31.679Z,84.40
2022-12-04T02:50:39.709Z,84.37
2022-12-04T02:55:48.771Z,84.42
2022-12-04T03:00:54.735Z,84.56
2022-12-04T03:06:07.389Z,84.52
2022-12-04T03:11:11.297Z,84.60
2022-12-04T03:16:23.691Z,84.56
2022-12-04T03:21:33.590Z,84.46
2022-12-04T03:26:45.911Z,84.69
2022-12-04T03:32:06.730Z,84.80
2022-12-04T03:37:20.589Z,84.90
2022-12-04T03:42:28.413Z,84.82
2022-12-04T03:47:43.493Z,85.03
2022-12-04T03:53:03.905Z,85.15
2022-12-04T03:58:14.075Z,85.07
2022-12-04T04:03:23.221Z,84.90
2022-12-04T04:08:34.260Z,85.07
2022-12-04T04:14:03.842Z,85.20
2022-12-04T04:19:31.232Z,85.20
2022-12-04T04:24:45.691Z,85.21
2022-12-04T04:29:52.633Z,85.19
2022-12-04T04:35:05.420Z,85.34
2022-12-04T04:40:22.143Z,85.39
2022-12-04T04:45:42.862Z,85.31
2022-12-04T04:50:46.786Z,85.40
2022-12-04T04:55:50.456Z,85.62
2022-12-04T05:00:59.556Z,85.53
2022-12-04T05:06:03.078Z,85.69
2022-12-04T05:11:06.890Z,85.74
2022-12-04T05:16:15.404Z,86.08
2022-12-04T05:21:18.734Z,85.95
2022-12-04T05:26:22.048Z,85.88
2022-12-04T05:31:25.594Z,86.03
2022-12-04T05:36:29.078Z,86.09
2022-12-04T05:41:32.488Z,86.13
2022-12-04T05:46:35.954Z,86.30
2022-12-04T05:51:39.521Z,86.21
2022-12-04T05:56:43.138Z,86.47
2022-12-04T06:01:46.539Z,86.40
2022-12-04T06:06:49.965Z,86.54
2022-12-04T06:11:57.997Z,86.51
2022-12-04T06:17:01.500Z,86.65
2022-12-04T06:22:04.916Z,86.62
2022-12-04T06:32:31.812Z,86.62
2022-12-04T06:37:35.224Z,86.60
2022-12-04T06:42:38.535Z,86.77
2022-12-04T06:47:41.952Z,86.94
2022-12-04T06:52:45.400Z,87.07
2022-12-04T06:57:48.881Z,87.00
2022-12-04T07:02:52.371Z,87.06
2022-12-04T07:07:55.880Z,87.18
2022-12-04T07:12:59.425Z,86.87
2022-12-04T07:18:03.043Z,86.87
2022-12-04T07:23:07.489Z,86.91
2022-12-04T07:28:10.999Z,87.04
2022-12-04T07:33:14.516Z,87.00
2022-12-04T07:38:17.935Z,86.93
2022-12-04T07:43:21.335Z,87.02
2022-12-04T07:48:30.185Z,86.89
2022-12-04T07:53:36.558Z,86.98
2022-12-04T07:58:40.485Z,86.95
2022-12-04T08:03:48.405Z,87.09
2022-12-04T08:08:53.467Z,87.05
2022-12-04T08:14:09.023Z,87.04
2022-12-04T08:19:12.599Z,87.03
2022-12-04T08:24:17.621Z,87.01
2022-12-04T08:29:20.931Z,87.00
2022-12-04T08:34:25.371Z,87.05
2022-12-04T08:39:28.580Z,86.94
2022-12-04T08:44:32.092Z,87.07
2022-12-04T08:49:35.916Z,87.19
2022-12-04T08:54:39.638Z,87.11
2022-12-04T08:59:43.560Z,87.20
2022-12-04T09:04:47.359Z,87.16
2022-12-04T09:09:52.221Z,87.19
2022-12-04T09:14:57.106Z,87.18
2022-12-04T09:20:02.916Z,87.18
2022-12-04T09:25:08.559Z,86.97
2022-12-04T09:30:14.451Z,86.75
2022-12-04T09:35:21.068Z,86.76
2022-12-04T09:40:58.111Z,86.79
2022-12-04T09:46:13.258Z,86.74
2022-12-04T09:51:33.631Z,86.79
2022-12-04T09:56:39.248Z,86.75
2022-12-04T10:01:50.996Z,86.83
2022-12-04T10:07:39.548Z,86.70
2022-12-04T10:12:55.676Z,86.75
2022-12-04T10:18:31.605Z,86.64
2022-12-04T10:23:58.703Z,86.55
2022-12-04T10:29:10.614Z,86.48
2022-12-04T10:34:27.191Z,86.63
2022-12-04T10:39:42.093Z,86.58
2022-12-04T10:44:45.916Z,86.32
2022-12-04T10:49:52.296Z,86.31
2022-12-04T10:55:02.783Z,86.42
2022-12-04T11:00:30.016Z,86.34
2022-12-04T11:05:37.760Z,86.28
2022-12-04T11:10:44.864Z,86.29
2022-12-04T11:15:55.137Z,86.42
2022-12-04T11:21:01.519Z,86.39
2022-12-04T11:26:06.420Z,86.26
2022-12-04T11:31:16.727Z,86.33
2022-12-04T11:36:24.769Z,86.37
2022-12-04T11:41:31.479Z,86.42
2022-12-04T11:46:37.080Z,86.24
2022-12-04T11:52:02.042Z,86.30
2022-12-04T11:57:39.135Z,86.39
2022-12-04T12:03:13.911Z,86.32
2022-12-04T12:08:20.060Z,86.38
2022-12-04T12:13:49.486Z,86.47
2022-12-04T12:19:05.188Z,86.41
2022-12-04T12:24:11.466Z,86.47
2022-12-04T12:29:21.023Z,86.50
2022-12-04T12:34:37.342Z,86.53
2022-12-04T12:39:48.124Z,86.37
2022-12-04T12:45:01.983Z,86.32
2022-12-04T12:50:16.665Z,86.34
2022-12-04T12:55:33.795Z,86.40
2022-12-04T13:00:47.207Z,86.39
2022-12-04T13:05:55.066Z,86.43
2022-12-04T13:10:58.368Z,86.46
2022-12-04T13:16:14.016Z,86.44
2022-12-04T13:21:45.749Z,86.35
2022-12-04T13:27:12.814Z,86.49
2022-12-04T13:32:45.002Z,86.53
2022-12-04T13:38:11.873Z,86.42
2022-12-04T13:43:34.238Z,86.52
2022-12-04T13:48:41.220Z,86.39
2022-12-04T13:53:44.838Z,86.53
2022-12-04T13:59:04.127Z,86.49
2022-12-04T14:04:08.560Z,86.59
2022-12-04T14:09:32.046Z,86.59
2022-12-04T14:14:43.140Z,86.69
2022-12-04T14:19:53.439Z,86.53
2022-12-04T14:25:21.709Z,86.77
2022-12-04T14:30:38.620Z,86.84
2022-12-04T14:36:05.502Z,86.66
2022-12-04T14:41:08.915Z,86.70
2022-12-04T14:46:25.642Z,86.65
2022-12-04T14:51:43.694Z,86.78
2022-12-04T14:57:05.647Z,86.80
2022-12-04T15:02:13.460Z,86.93
2022-12-04T15:07:22.229Z,86.77
2022-12-04T15:12:35.662Z,86.86
2022-12-04T15:17:39.058Z,86.95
2022-12-04T15:22:43.062Z,86.81
2022-12-04T15:27:49.263Z,86.89
2022-12-04T15:32:53.906Z,87.08
2022-12-04T15:37:59.516Z,87.01
2022-12-04T15:43:17.328Z,87.03
2022-12-04T15:48:28.233Z,87.11
2022-12-04T15:53:40.362Z,87.11
2022-12-04T15:58:53.059Z,87.20
2022-12-04T16:03:56.734Z,87.42
2022-12-04T16:09:13.405Z,87.34
2022-12-04T16:14:18.720Z,87.38
2022-12-04T16:19:30.370Z,87.46
2022-12-04T16:24:33.883Z,87.43
2022-12-04T16:29:37.192Z,87.58
2022-12-04T16:34:40.912Z,87.74
2022-12-04T16:39:44.732Z,87.81
2022-12-04T16:44:48.458Z,87.79
2022-12-04T16:49:52.384Z,87.86
2022-12-04T16:54:58.432Z,87.93
2022-12-04T17:00:04.435Z,87.96
2022-12-04T17:05:09.029Z,88.21
2022-12-04T17:10:15.006Z,88.32
2022-12-04T17:15:21.260Z,88.37
2022-12-04T17:20:24.841Z,88.36
2022-12-04T17:25:28.150Z,88.48
2022-12-04T17:30:35.997Z,88.50
2022-12-04T17:35:44.398Z,88.57
2022-12-04T17:40:58.937Z,88.72
2022-12-04T17:46:02.797Z,88.64
2022-12-04T17:51:17.679Z,88.76
2022-12-04T17:56:23.550Z,88.81
2022-12-04T18:01:29.249Z,88.97
2022-12-04T18:06:35.267Z,88.89
2022-12-04T18:11:40.749Z,89.08
2022-12-04T18:16:47.355Z,89.09
2022-12-04T18:21:51.880Z,89.04
2022-12-04T18:26:55.394Z,88.94
2022-12-04T18:31:58.833Z,89.05
2022-12-04T18:37:02.353Z,89.20
2022-12-04T18:42:06.145Z,89.20
2022-12-04T18:47:09.457Z,89.53
2022-12-04T18:52:12.869Z,89.54
2022-12-04T18:57:16.281Z,89.63
2022-12-04T19:02:19.764Z,89.39
2022-12-04T19:07:23.420Z,89.58
2022-12-04T19:12:26.938Z,89.75
2022-12-04T19:17:30.348Z,89.79
2022-12-04T19:22:33.656Z,89.90
2022-12-04T19:27:37.171Z,89.82
2022-12-04T19:32:40.588Z,89.75
2022-12-04T19:37:48.164Z,89.74
2022-12-04T19:42:58.204Z,89.84
2022-12-04T19:48:06.292Z,89.71
2022-12-04T19:53:11.951Z,89.83
2022-12-04T19:58:15.264Z,89.88
2022-12-04T20:03:18.685Z,89.91
2022-12-04T20:08:22.298Z,89.78
2022-12-04T20:13:25.809Z,89.96
2022-12-04T20:18:29.528Z,89.79
2022-12-04T20:23:32.840Z,89.81
2022-12-04T21:25:42.172Z,89.39
2022-12-04T21:30:45.461Z,89.60
2022-12-04T21:35:48.893Z,89.57
2022-12-04T21:40:52.305Z,89.34
2022-12-04T21:46:04.487Z,89.26
2022-12-04T21:51:26.883Z,89.46
2022-12-04T21:56:35.826Z,89.35
2022-12-04T22:01:39.508Z,89.31
2022-12-04T22:06:43.474Z,89.15
2022-12-04T22:11:46.988Z,89.12
2022-12-04T22:16:51.930Z,89.01
2022-12-04T22:21:55.452Z,88.92
2022-12-04T22:26:58.865Z,89.08
2022-12-04T22:32:02.278Z,89.13
2022-12-04T22:37:05.692Z,88.98
2022-12-04T22:42:09.107Z,89.29
2022-12-04T22:47:12.570Z,88.90
2022-12-04T22:52:16.135Z,89.16
2022-12-04T22:57:19.445Z,88.92
2022-12-04T23:02:22.861Z,89.13
2022-12-04T23:07:26.272Z,89.18
2022-12-04T23:12:30.094Z,89.17
2022-12-04T23:17:33.510Z,89.25
2022-12-04T23:22:37.026Z,89.13
2022-12-04T23:27:40.439Z,89.22
2022-12-04T23:32:43.850Z,89.01
2022-12-04T23:37:47.263Z,89.11
2022-12-04T23:42:50.586Z,88.95
2022-12-04T23:47:56.036Z,89.12
2022-12-04T23:52:59.348Z,88.99
2022-12-04T23:58:02.963Z,89.02
